sensor_id;sensor_type;location;lat;lon;timestamp;temperature;humidity
420;DHT22;42600;54.408;13.016;2023-01-30T00:01:59;3.60;92.70
420;DHT22;42600;54.408;13.016;2023-01-30T00:04:25;3.60;92.70
420;DHT22;42600;54.408;13.016;2023-01-30T00:06:52;3.60;92.70
420;DHT22;42600;54.408;13.016;2023-01-30T00:09:18;3.60;92.70
420;DHT22;42600;54.408;13.016;2023-01-30T00:11:45;3.60;92.70
420;DHT22;42600;54.408;13.016;2023-01-30T00:14:11;3.60;92.70
420;DHT22;42600;54.408;13.016;2023-01-30T00:16:38;3.60;92.70
420;DHT22;42600;54.408;13.016;2023-01-30T00:19:07;3.60;92.70
420;DHT22;42600;54.408;13.016;2023-01-30T00:21:34;3.70;92.70
420;DHT22;42600;54.408;13.016;2023-01-30T00:24:00;3.70;92.70
420;DHT22;42600;54.408;13.016;2023-01-30T00:26:27;3.70;92.70
420;DHT22;42600;54.408;13.016;2023-01-30T00:28:54;3.70;92.70
420;DHT22;42600;54.408;13.016;2023-01-30T00:31:20;3.70;92.70
420;DHT22;42600;54.408;13.016;2023-01-30T00:33:47;3.70;92.70
420;DHT22;42600;54.408;13.016;2023-01-30T00:36:15;3.70;92.70
420;DHT22;42600;54.408;13.016;2023-01-30T00:38:41;3.70;92.70
420;DHT22;42600;54.408;13.016;2023-01-30T00:41:08;3.80;92.70
420;DHT22;42600;54.408;13.016;2023-01-30T00:43:37;3.80;92.70
420;DHT22;42600;54.408;13.016;2023-01-30T00:46:25;3.80;92.70
420;DHT22;42600;54.408;13.016;2023-01-30T00:49:11;3.80;92.70
420;DHT22;42600;54.408;13.016;2023-01-30T00:51:39;3.80;92.70
420;DHT22;42600;54.408;13.016;2023-01-30T00:54:05;3.80;92.70
420;DHT22;42600;54.408;13.016;2023-01-30T00:56:32;3.90;92.70
420;DHT22;42600;54.408;13.016;2023-01-30T00:58:58;3.90;92.70
420;DHT22;42600;54.408;13.016;2023-01-30T01:01:25;3.90;92.70
420;DHT22;42600;54.408;13.016;2023-01-30T01:03:52;3.90;92.70
420;DHT22;42600;54.408;13.016;2023-01-30T01:06:18;3.90;92.70
420;DHT22;42600;54.408;13.016;2023-01-30T01:08:46;3.90;92.70
420;DHT22;42600;54.408;13.016;2023-01-30T01:11:13;3.90;92.70
420;DHT22;42600;54.408;13.016;2023-01-30T01:13:49;3.90;92.70
420;DHT22;42600;54.408;13.016;2023-01-30T01:16:16;3.90;92.70
420;DHT22;42600;54.408;13.016;2023-01-30T01:18:42;3.90;92.70
420;DHT22;42600;54.408;13.016;2023-01-30T01:21:09;3.90;92.70
420;DHT22;42600;54.408;13.016;2023-01-30T01:23:35;4.00;92.70
420;DHT22;42600;54.408;13.016;2023-01-30T01:26:03;4.00;92.70
420;DHT22;42600;54.408;13.016;2023-01-30T01:28:30;4.00;92.70
420;DHT22;42600;54.408;13.016;2023-01-30T01:30:56;4.00;92.70
420;DHT22;42600;54.408;13.016;2023-01-30T01:33:25;4.00;92.70
420;DHT22;42600;54.408;13.016;2023-01-30T01:35:54;4.00;92.70
420;DHT22;42600;54.408;13.016;2023-01-30T01:38:21;4.10;92.70
420;DHT22;42600;54.408;13.016;2023-01-30T01:40:47;4.10;92.70
420;DHT22;42600;54.408;13.016;2023-01-30T01:43:33;4.10;92.70
420;DHT22;42600;54.408;13.016;2023-01-30T01:46:05;4.10;92.70
420;DHT22;42600;54.408;13.016;2023-01-30T01:48:35;4.10;92.70
420;DHT22;42600;54.408;13.016;2023-01-30T01:51:08;4.10;92.70
420;DHT22;42600;54.408;13.016;2023-01-30T01:53:41;4.10;92.70
420;DHT22;42600;54.408;13.016;2023-01-30T01:56:10;4.20;92.70
420;DHT22;42600;54.408;13.016;2023-01-30T01:58:43;4.20;92.70
420;DHT22;42600;54.408;13.016;2023-01-30T02:01:10;4.20;92.70
420;DHT22;42600;54.408;13.016;2023-01-30T02:03:41;4.20;92.70
420;DHT22;42600;54.408;13.016;2023-01-30T02:06:10;4.20;92.70
420;DHT22;42600;54.408;13.016;2023-01-30T02:08:39;4.20;92.70
420;DHT22;42600;54.408;13.016;2023-01-30T02:11:09;4.20;92.70
420;DHT22;42600;54.408;13.016;2023-01-30T02:13:39;4.20;92.70
420;DHT22;42600;54.408;13.016;2023-01-30T02:16:07;4.20;92.70
420;DHT22;42600;54.408;13.016;2023-01-30T02:18:35;4.20;92.70
420;DHT22;42600;54.408;13.016;2023-01-30T02:21:16;4.20;92.70
420;DHT22;42600;54.408;13.016;2023-01-30T02:24:11;4.20;92.70
420;DHT22;42600;54.408;13.016;2023-01-30T02:27:07;4.30;92.70
420;DHT22;42600;54.408;13.016;2023-01-30T02:30:01;4.30;92.70
420;DHT22;42600;54.408;13.016;2023-01-30T02:32:33;4.30;92.70
420;DHT22;42600;54.408;13.016;2023-01-30T02:35:10;4.30;92.70
420;DHT22;42600;54.408;13.016;2023-01-30T02:37:48;4.40;92.70
420;DHT22;42600;54.408;13.016;2023-01-30T02:40:34;4.40;92.70
420;DHT22;42600;54.408;13.016;2023-01-30T02:43:10;4.40;92.70
420;DHT22;42600;54.408;13.016;2023-01-30T02:45:43;4.40;92.70
420;DHT22;42600;54.408;13.016;2023-01-30T02:48:16;4.40;92.70
420;DHT22;42600;54.408;13.016;2023-01-30T02:50:51;4.40;92.70
420;DHT22;42600;54.408;13.016;2023-01-30T02:53:19;4.40;92.70
420;DHT22;42600;54.408;13.016;2023-01-30T02:55:46;4.50;92.70
420;DHT22;42600;54.408;13.016;2023-01-30T02:58:13;4.50;92.70
420;DHT22;42600;54.408;13.016;2023-01-30T03:00:54;4.50;92.70
420;DHT22;42600;54.408;13.016;2023-01-30T03:03:42;4.50;92.70
420;DHT22;42600;54.408;13.016;2023-01-30T03:06:27;4.60;92.70
420;DHT22;42600;54.408;13.016;2023-01-30T03:09:02;4.60;92.70
420;DHT22;42600;54.408;13.016;2023-01-30T03:11:40;4.60;92.70
420;DHT22;42600;54.408;13.016;2023-01-30T03:14:13;4.60;92.70
420;DHT22;42600;54.408;13.016;2023-01-30T03:16:42;4.60;92.70
420;DHT22;42600;54.408;13.016;2023-01-30T03:19:11;4.60;92.70
420;DHT22;42600;54.408;13.016;2023-01-30T03:21:40;4.70;92.70
420;DHT22;42600;54.408;13.016;2023-01-30T03:24:07;4.70;92.70
420;DHT22;42600;54.408;13.016;2023-01-30T03:26:38;4.70;92.70
420;DHT22;42600;54.408;13.016;2023-01-30T03:29:05;4.70;92.70
420;DHT22;42600;54.408;13.016;2023-01-30T03:31:32;4.70;92.70
420;DHT22;42600;54.408;13.016;2023-01-30T03:33:58;4.70;92.70
420;DHT22;42600;54.408;13.016;2023-01-30T03:36:26;4.70;92.70
420;DHT22;42600;54.408;13.016;2023-01-30T03:38:53;4.80;92.70
420;DHT22;42600;54.408;13.016;2023-01-30T03:41:19;4.80;92.70
420;DHT22;42600;54.408;13.016;2023-01-30T03:43:46;4.80;92.70
420;DHT22;42600;54.408;13.016;2023-01-30T03:46:13;4.80;92.70
420;DHT22;42600;54.408;13.016;2023-01-30T03:48:39;4.80;92.70
420;DHT22;42600;54.408;13.016;2023-01-30T03:51:06;4.80;92.70
420;DHT22;42600;54.408;13.016;2023-01-30T03:53:34;4.80;92.70
420;DHT22;42600;54.408;13.016;2023-01-30T03:56:00;4.80;92.70
420;DHT22;42600;54.408;13.016;2023-01-30T03:58:27;4.80;92.70
420;DHT22;42600;54.408;13.016;2023-01-30T04:00:54;4.80;92.70
420;DHT22;42600;54.408;13.016;2023-01-30T04:03:21;4.80;92.70
420;DHT22;42600;54.408;13.016;2023-01-30T04:05:48;4.90;92.70
420;DHT22;42600;54.408;13.016;2023-01-30T04:08:15;4.90;92.70
420;DHT22;42600;54.408;13.016;2023-01-30T04:10:42;4.90;92.70
420;DHT22;42600;54.408;13.016;2023-01-30T04:13:09;4.90;92.70
420;DHT22;42600;54.408;13.016;2023-01-30T04:15:35;4.90;92.70
420;DHT22;42600;54.408;13.016;2023-01-30T04:18:02;4.90;92.70
420;DHT22;42600;54.408;13.016;2023-01-30T04:20:29;4.90;92.70
420;DHT22;42600;54.408;13.016;2023-01-30T04:22:55;4.90;92.70
420;DHT22;42600;54.408;13.016;2023-01-30T04:25:22;5.00;92.70
420;DHT22;42600;54.408;13.016;2023-01-30T04:27:50;5.00;92.70
420;DHT22;42600;54.408;13.016;2023-01-30T04:30:16;5.00;92.70
420;DHT22;42600;54.408;13.016;2023-01-30T04:32:43;5.00;92.70
420;DHT22;42600;54.408;13.016;2023-01-30T04:35:10;5.00;92.70
420;DHT22;42600;54.408;13.016;2023-01-30T04:37:37;5.00;92.70
420;DHT22;42600;54.408;13.016;2023-01-30T04:40:04;5.00;92.70
420;DHT22;42600;54.408;13.016;2023-01-30T04:42:31;5.00;92.70
420;DHT22;42600;54.408;13.016;2023-01-30T04:44:59;5.00;92.70
420;DHT22;42600;54.408;13.016;2023-01-30T04:47:25;5.00;92.70
420;DHT22;42600;54.408;13.016;2023-01-30T04:49:52;4.90;92.70
420;DHT22;42600;54.408;13.016;2023-01-30T04:52:18;4.90;92.70
420;DHT22;42600;54.408;13.016;2023-01-30T04:54:45;4.90;92.70
420;DHT22;42600;54.408;13.016;2023-01-30T04:57:11;4.90;92.70
420;DHT22;42600;54.408;13.016;2023-01-30T04:59:38;4.90;92.70
420;DHT22;42600;54.408;13.016;2023-01-30T05:02:06;4.90;92.70
420;DHT22;42600;54.408;13.016;2023-01-30T05:04:33;4.90;92.70
420;DHT22;42600;54.408;13.016;2023-01-30T05:06:59;4.90;92.70
420;DHT22;42600;54.408;13.016;2023-01-30T05:09:26;4.90;92.70
420;DHT22;42600;54.408;13.016;2023-01-30T05:11:52;4.90;92.70
420;DHT22;42600;54.408;13.016;2023-01-30T05:14:19;4.90;92.70
420;DHT22;42600;54.408;13.016;2023-01-30T05:16:45;4.90;92.70
420;DHT22;42600;54.408;13.016;2023-01-30T05:19:13;4.90;92.70
420;DHT22;42600;54.408;13.016;2023-01-30T05:21:40;4.90;92.70
420;DHT22;42600;54.408;13.016;2023-01-30T05:24:07;4.90;92.70
420;DHT22;42600;54.408;13.016;2023-01-30T05:26:33;4.90;92.70
420;DHT22;42600;54.408;13.016;2023-01-30T05:29:00;4.90;92.70
420;DHT22;42600;54.408;13.016;2023-01-30T05:31:27;4.80;92.70
420;DHT22;42600;54.408;13.016;2023-01-30T05:33:53;4.80;92.70
420;DHT22;42600;54.408;13.016;2023-01-30T05:36:22;4.80;92.70
420;DHT22;42600;54.408;13.016;2023-01-30T05:38:49;4.70;92.70
420;DHT22;42600;54.408;13.016;2023-01-30T05:41:15;4.70;92.70
420;DHT22;42600;54.408;13.016;2023-01-30T05:43:42;4.70;92.70
420;DHT22;42600;54.408;13.016;2023-01-30T05:46:10;4.70;92.70
420;DHT22;42600;54.408;13.016;2023-01-30T05:48:37;4.60;92.70
420;DHT22;42600;54.408;13.016;2023-01-30T05:51:04;4.60;92.70
420;DHT22;42600;54.408;13.016;2023-01-30T05:53:32;4.60;92.70
420;DHT22;42600;54.408;13.016;2023-01-30T05:56:01;4.60;92.70
420;DHT22;42600;54.408;13.016;2023-01-30T05:58:28;4.50;92.70
420;DHT22;42600;54.408;13.016;2023-01-30T06:00:59;4.60;92.70
420;DHT22;42600;54.408;13.016;2023-01-30T06:03:25;4.60;92.70
420;DHT22;42600;54.408;13.016;2023-01-30T06:05:52;4.60;92.70
420;DHT22;42600;54.408;13.016;2023-01-30T06:08:18;4.60;92.70
420;DHT22;42600;54.408;13.016;2023-01-30T06:10:46;4.60;92.70
420;DHT22;42600;54.408;13.016;2023-01-30T06:13:13;4.60;92.70
420;DHT22;42600;54.408;13.016;2023-01-30T06:15:39;4.50;92.70
420;DHT22;42600;54.408;13.016;2023-01-30T06:18:06;4.50;92.70
420;DHT22;42600;54.408;13.016;2023-01-30T06:20:32;4.50;92.70
420;DHT22;42600;54.408;13.016;2023-01-30T06:22:59;4.50;92.70
420;DHT22;42600;54.408;13.016;2023-01-30T06:25:26;4.50;92.70
420;DHT22;42600;54.408;13.016;2023-01-30T06:27:53;4.50;92.70
420;DHT22;42600;54.408;13.016;2023-01-30T06:30:20;4.50;92.70
420;DHT22;42600;54.408;13.016;2023-01-30T06:32:49;4.50;92.70
420;DHT22;42600;54.408;13.016;2023-01-30T06:35:15;4.40;92.70
420;DHT22;42600;54.408;13.016;2023-01-30T06:37:43;4.40;92.70
420;DHT22;42600;54.408;13.016;2023-01-30T06:40:11;4.40;92.70
420;DHT22;42600;54.408;13.016;2023-01-30T06:42:37;4.40;92.70
420;DHT22;42600;54.408;13.016;2023-01-30T06:45:06;4.40;92.70
420;DHT22;42600;54.408;13.016;2023-01-30T06:47:34;4.40;92.70
420;DHT22;42600;54.408;13.016;2023-01-30T06:50:00;4.40;92.70
420;DHT22;42600;54.408;13.016;2023-01-30T06:52:27;4.40;92.70
420;DHT22;42600;54.408;13.016;2023-01-30T06:54:53;4.40;92.70
420;DHT22;42600;54.408;13.016;2023-01-30T06:57:20;4.40;92.70
420;DHT22;42600;54.408;13.016;2023-01-30T06:59:46;4.40;92.70
420;DHT22;42600;54.408;13.016;2023-01-30T07:02:14;4.40;92.70
420;DHT22;42600;54.408;13.016;2023-01-30T07:04:41;4.40;92.70
420;DHT22;42600;54.408;13.016;2023-01-30T07:07:07;4.40;92.70
420;DHT22;42600;54.408;13.016;2023-01-30T07:09:34;4.40;92.70
420;DHT22;42600;54.408;13.016;2023-01-30T07:12:00;4.40;92.70
420;DHT22;42600;54.408;13.016;2023-01-30T07:14:27;4.40;92.70
420;DHT22;42600;54.408;13.016;2023-01-30T07:16:53;4.40;92.70
420;DHT22;42600;54.408;13.016;2023-01-30T07:19:21;4.40;92.70
420;DHT22;42600;54.408;13.016;2023-01-30T07:21:48;4.40;92.70
420;DHT22;42600;54.408;13.016;2023-01-30T07:24:14;4.40;92.70
420;DHT22;42600;54.408;13.016;2023-01-30T07:26:41;4.40;92.70
420;DHT22;42600;54.408;13.016;2023-01-30T07:29:08;4.40;92.70
420;DHT22;42600;54.408;13.016;2023-01-30T07:31:34;4.40;92.70
420;DHT22;42600;54.408;13.016;2023-01-30T07:34:01;4.40;92.70
420;DHT22;42600;54.408;13.016;2023-01-30T07:36:29;4.40;92.70
420;DHT22;42600;54.408;13.016;2023-01-30T07:38:57;4.40;92.70
420;DHT22;42600;54.408;13.016;2023-01-30T07:41:24;4.50;92.70
420;DHT22;42600;54.408;13.016;2023-01-30T07:43:51;4.50;92.70
420;DHT22;42600;54.408;13.016;2023-01-30T07:46:18;4.50;92.70
420;DHT22;42600;54.408;13.016;2023-01-30T07:48:44;4.50;92.70
420;DHT22;42600;54.408;13.016;2023-01-30T07:51:11;4.50;92.70
420;DHT22;42600;54.408;13.016;2023-01-30T07:53:39;4.50;92.70
420;DHT22;42600;54.408;13.016;2023-01-30T07:56:07;4.50;92.70
420;DHT22;42600;54.408;13.016;2023-01-30T07:58:35;4.50;92.70
420;DHT22;42600;54.408;13.016;2023-01-30T08:01:01;4.50;92.70
420;DHT22;42600;54.408;13.016;2023-01-30T08:03:28;4.50;92.70
420;DHT22;42600;54.408;13.016;2023-01-30T08:05:54;4.50;92.70
420;DHT22;42600;54.408;13.016;2023-01-30T08:08:21;4.50;92.70
420;DHT22;42600;54.408;13.016;2023-01-30T08:10:49;4.40;92.70
420;DHT22;42600;54.408;13.016;2023-01-30T08:13:15;4.40;92.70
420;DHT22;42600;54.408;13.016;2023-01-30T08:15:42;4.40;92.70
420;DHT22;42600;54.408;13.016;2023-01-30T08:18:09;4.30;92.70
420;DHT22;42600;54.408;13.016;2023-01-30T08:20:36;4.30;92.70
420;DHT22;42600;54.408;13.016;2023-01-30T08:23:03;4.30;92.70
420;DHT22;42600;54.408;13.016;2023-01-30T08:25:29;4.30;92.70
420;DHT22;42600;54.408;13.016;2023-01-30T08:27:58;4.40;92.70
420;DHT22;42600;54.408;13.016;2023-01-30T08:30:25;4.40;92.70
420;DHT22;42600;54.408;13.016;2023-01-30T08:32:52;4.50;92.70
420;DHT22;42600;54.408;13.016;2023-01-30T08:35:19;4.50;92.70
420;DHT22;42600;54.408;13.016;2023-01-30T08:37:45;4.50;92.70
420;DHT22;42600;54.408;13.016;2023-01-30T08:40:12;4.60;92.70
420;DHT22;42600;54.408;13.016;2023-01-30T08:42:39;4.70;92.70
420;DHT22;42600;54.408;13.016;2023-01-30T08:45:08;4.70;92.70
420;DHT22;42600;54.408;13.016;2023-01-30T08:47:34;4.70;92.70
420;DHT22;42600;54.408;13.016;2023-01-30T08:50:01;4.70;92.70
420;DHT22;42600;54.408;13.016;2023-01-30T08:52:28;4.70;92.70
420;DHT22;42600;54.408;13.016;2023-01-30T08:54:55;4.70;92.70
420;DHT22;42600;54.408;13.016;2023-01-30T08:57:21;4.70;92.70
420;DHT22;42600;54.408;13.016;2023-01-30T08:59:48;4.70;92.70
420;DHT22;42600;54.408;13.016;2023-01-30T09:02:17;4.60;92.70
420;DHT22;42600;54.408;13.016;2023-01-30T09:04:43;4.60;92.70
420;DHT22;42600;54.408;13.016;2023-01-30T09:07:10;4.60;92.70
420;DHT22;42600;54.408;13.016;2023-01-30T09:09:36;4.50;92.70
420;DHT22;42600;54.408;13.016;2023-01-30T09:12:03;4.50;92.70
420;DHT22;42600;54.408;13.016;2023-01-30T09:14:30;4.50;92.70
420;DHT22;42600;54.408;13.016;2023-01-30T09:16:57;4.50;92.70
420;DHT22;42600;54.408;13.016;2023-01-30T09:19:26;4.50;92.70
420;DHT22;42600;54.408;13.016;2023-01-30T09:21:54;4.50;92.70
420;DHT22;42600;54.408;13.016;2023-01-30T09:24:21;4.50;92.70
420;DHT22;42600;54.408;13.016;2023-01-30T09:26:50;4.50;92.70
420;DHT22;42600;54.408;13.016;2023-01-30T09:29:17;4.50;92.70
420;DHT22;42600;54.408;13.016;2023-01-30T09:31:44;4.50;92.70
420;DHT22;42600;54.408;13.016;2023-01-30T09:34:11;4.50;92.70
420;DHT22;42600;54.408;13.016;2023-01-30T09:36:39;4.50;92.70
420;DHT22;42600;54.408;13.016;2023-01-30T09:39:05;4.50;92.70
420;DHT22;42600;54.408;13.016;2023-01-30T09:41:46;4.60;92.70
420;DHT22;42600;54.408;13.016;2023-01-30T09:44:44;4.60;92.70
420;DHT22;42600;54.408;13.016;2023-01-30T09:47:13;4.60;92.70
420;DHT22;42600;54.408;13.016;2023-01-30T09:49:51;4.60;92.70
420;DHT22;42600;54.408;13.016;2023-01-30T09:52:26;4.60;92.70
420;DHT22;42600;54.408;13.016;2023-01-30T09:55:00;4.50;92.70
420;DHT22;42600;54.408;13.016;2023-01-30T09:57:27;4.50;92.70
420;DHT22;42600;54.408;13.016;2023-01-30T09:59:57;4.50;92.70
420;DHT22;42600;54.408;13.016;2023-01-30T10:02:39;4.60;92.70
420;DHT22;42600;54.408;13.016;2023-01-30T10:05:07;4.60;92.70
420;DHT22;42600;54.408;13.016;2023-01-30T10:07:53;4.60;92.70
420;DHT22;42600;54.408;13.016;2023-01-30T10:10:37;4.60;92.70
420;DHT22;42600;54.408;13.016;2023-01-30T10:13:17;4.70;92.70
420;DHT22;42600;54.408;13.016;2023-01-30T10:15:51;4.70;92.70
420;DHT22;42600;54.408;13.016;2023-01-30T10:18:41;4.80;92.70
420;DHT22;42600;54.408;13.016;2023-01-30T10:21:18;4.80;92.70
420;DHT22;42600;54.408;13.016;2023-01-30T10:23:59;4.80;92.70
420;DHT22;42600;54.408;13.016;2023-01-30T10:26:29;4.90;92.70
420;DHT22;42600;54.408;13.016;2023-01-30T10:28:59;4.90;92.70
420;DHT22;42600;54.408;13.016;2023-01-30T10:31:31;4.90;92.70
420;DHT22;42600;54.408;13.016;2023-01-30T10:34:02;4.90;92.70
420;DHT22;42600;54.408;13.016;2023-01-30T10:36:35;4.90;92.70
420;DHT22;42600;54.408;13.016;2023-01-30T10:39:16;4.90;92.70
420;DHT22;42600;54.408;13.016;2023-01-30T10:41:51;4.90;92.70
420;DHT22;42600;54.408;13.016;2023-01-30T10:44:21;5.00;92.70
420;DHT22;42600;54.408;13.016;2023-01-30T10:47:07;5.00;92.70
420;DHT22;42600;54.408;13.016;2023-01-30T10:49:43;5.10;92.70
420;DHT22;42600;54.408;13.016;2023-01-30T10:52:34;5.10;92.70
420;DHT22;42600;54.408;13.016;2023-01-30T10:55:14;5.20;92.70
420;DHT22;42600;54.408;13.016;2023-01-30T10:57:49;5.20;92.70
420;DHT22;42600;54.408;13.016;2023-01-30T11:00:25;5.20;92.70
420;DHT22;42600;54.408;13.016;2023-01-30T11:03:09;5.30;92.70
420;DHT22;42600;54.408;13.016;2023-01-30T11:05:44;5.30;92.70
420;DHT22;42600;54.408;13.016;2023-01-30T11:08:22;5.30;92.70
420;DHT22;42600;54.408;13.016;2023-01-30T11:10:50;5.30;92.70
420;DHT22;42600;54.408;13.016;2023-01-30T11:13:19;5.30;92.70
420;DHT22;42600;54.408;13.016;2023-01-30T11:15:49;5.30;92.70
420;DHT22;42600;54.408;13.016;2023-01-30T11:18:17;5.30;92.70
420;DHT22;42600;54.408;13.016;2023-01-30T11:23:31;5.30;92.70
420;DHT22;42600;54.408;13.016;2023-01-30T11:26:00;5.30;92.70
420;DHT22;42600;54.408;13.016;2023-01-30T11:28:35;5.30;92.70
420;DHT22;42600;54.408;13.016;2023-01-30T11:31:02;5.30;92.70
420;DHT22;42600;54.408;13.016;2023-01-30T11:33:31;5.30;92.70
420;DHT22;42600;54.408;13.016;2023-01-30T11:36:00;5.30;92.70
420;DHT22;42600;54.408;13.016;2023-01-30T11:38:28;5.20;92.70
420;DHT22;42600;54.408;13.016;2023-01-30T11:41:09;5.20;92.70
420;DHT22;42600;54.408;13.016;2023-01-30T11:43:41;5.20;92.70
420;DHT22;42600;54.408;13.016;2023-01-30T11:46:10;5.20;92.70
420;DHT22;42600;54.408;13.016;2023-01-30T11:48:43;5.20;92.70
420;DHT22;42600;54.408;13.016;2023-01-30T11:51:14;5.20;92.70
420;DHT22;42600;54.408;13.016;2023-01-30T11:53:44;5.10;92.70
420;DHT22;42600;54.408;13.016;2023-01-30T11:56:19;5.10;92.70
420;DHT22;42600;54.408;13.016;2023-01-30T11:58:53;5.10;92.70
420;DHT22;42600;54.408;13.016;2023-01-30T12:01:25;5.10;92.70
420;DHT22;42600;54.408;13.016;2023-01-30T12:03:54;5.10;92.70
420;DHT22;42600;54.408;13.016;2023-01-30T12:06:22;5.10;92.70
420;DHT22;42600;54.408;13.016;2023-01-30T12:08:51;5.10;92.70
420;DHT22;42600;54.408;13.016;2023-01-30T12:11:26;5.10;92.70
420;DHT22;42600;54.408;13.016;2023-01-30T12:13:54;5.10;92.70
420;DHT22;42600;54.408;13.016;2023-01-30T12:16:25;5.10;92.70
420;DHT22;42600;54.408;13.016;2023-01-30T12:19:02;5.10;92.70
420;DHT22;42600;54.408;13.016;2023-01-30T12:21:35;5.20;92.70
420;DHT22;42600;54.408;13.016;2023-01-30T12:24:12;5.20;92.70
420;DHT22;42600;54.408;13.016;2023-01-30T12:26:45;5.20;92.70
420;DHT22;42600;54.408;13.016;2023-01-30T12:29:22;5.20;92.70
420;DHT22;42600;54.408;13.016;2023-01-30T12:31:56;5.20;92.70
420;DHT22;42600;54.408;13.016;2023-01-30T12:34:25;5.30;92.70
420;DHT22;42600;54.408;13.016;2023-01-30T12:37:02;5.20;92.70
420;DHT22;42600;54.408;13.016;2023-01-30T12:39:40;5.30;92.70
420;DHT22;42600;54.408;13.016;2023-01-30T12:42:23;5.30;92.70
420;DHT22;42600;54.408;13.016;2023-01-30T12:45:00;5.30;92.70
420;DHT22;42600;54.408;13.016;2023-01-30T12:48:03;5.20;92.70
420;DHT22;42600;54.408;13.016;2023-01-30T12:50:40;5.20;92.70
420;DHT22;42600;54.408;13.016;2023-01-30T12:53:25;5.20;92.70
420;DHT22;42600;54.408;13.016;2023-01-30T12:56:22;5.30;92.70
420;DHT22;42600;54.408;13.016;2023-01-30T12:58:56;5.30;92.70
420;DHT22;42600;54.408;13.016;2023-01-30T13:01:28;5.30;92.70
420;DHT22;42600;54.408;13.016;2023-01-30T13:04:05;5.20;92.70
420;DHT22;42600;54.408;13.016;2023-01-30T13:06:54;5.20;92.70
420;DHT22;42600;54.408;13.016;2023-01-30T13:09:37;5.20;92.70
420;DHT22;42600;54.408;13.016;2023-01-30T13:12:11;5.20;92.70
420;DHT22;42600;54.408;13.016;2023-01-30T13:14:45;5.20;92.70
420;DHT22;42600;54.408;13.016;2023-01-30T13:17:25;5.20;92.70
420;DHT22;42600;54.408;13.016;2023-01-30T13:20:03;5.10;92.70
420;DHT22;42600;54.408;13.016;2023-01-30T13:22:37;5.20;92.70
420;DHT22;42600;54.408;13.016;2023-01-30T13:25:19;5.10;92.70
420;DHT22;42600;54.408;13.016;2023-01-30T13:27:53;5.20;92.70
420;DHT22;42600;54.408;13.016;2023-01-30T13:30:23;5.10;92.70
420;DHT22;42600;54.408;13.016;2023-01-30T13:32:55;5.20;92.70
420;DHT22;42600;54.408;13.016;2023-01-30T13:35:27;5.20;92.70
420;DHT22;42600;54.408;13.016;2023-01-30T13:37:56;5.20;92.70
420;DHT22;42600;54.408;13.016;2023-01-30T13:40:26;5.20;92.70
420;DHT22;42600;54.408;13.016;2023-01-30T13:42:56;5.20;92.70
420;DHT22;42600;54.408;13.016;2023-01-30T13:45:28;5.20;92.70
420;DHT22;42600;54.408;13.016;2023-01-30T13:48:08;5.20;92.70
420;DHT22;42600;54.408;13.016;2023-01-30T13:50:51;5.20;92.70
420;DHT22;42600;54.408;13.016;2023-01-30T13:53:27;5.20;92.70
420;DHT22;42600;54.408;13.016;2023-01-30T13:55:57;5.10;92.70
420;DHT22;42600;54.408;13.016;2023-01-30T13:58:37;5.10;92.70
420;DHT22;42600;54.408;13.016;2023-01-30T14:01:10;5.10;92.70
420;DHT22;42600;54.408;13.016;2023-01-30T14:03:37;5.20;92.70
420;DHT22;42600;54.408;13.016;2023-01-30T14:08:56;5.20;92.70
420;DHT22;42600;54.408;13.016;2023-01-30T14:11:30;5.20;92.70
420;DHT22;42600;54.408;13.016;2023-01-30T14:14:02;5.20;92.70
420;DHT22;42600;54.408;13.016;2023-01-30T14:16:41;5.20;92.70
420;DHT22;42600;54.408;13.016;2023-01-30T14:19:32;5.10;92.70
420;DHT22;42600;54.408;13.016;2023-01-30T14:22:02;5.10;92.70
420;DHT22;42600;54.408;13.016;2023-01-30T14:24:29;5.10;92.70
420;DHT22;42600;54.408;13.016;2023-01-30T14:27:18;5.10;92.70
420;DHT22;42600;54.408;13.016;2023-01-30T14:29:54;5.10;92.70
420;DHT22;42600;54.408;13.016;2023-01-30T14:32:50;5.20;92.70
420;DHT22;42600;54.408;13.016;2023-01-30T14:35:23;5.20;92.70
420;DHT22;42600;54.408;13.016;2023-01-30T14:38:08;5.20;92.70
420;DHT22;42600;54.408;13.016;2023-01-30T14:40:46;5.20;92.70
420;DHT22;42600;54.408;13.016;2023-01-30T14:43:44;5.20;92.70
420;DHT22;42600;54.408;13.016;2023-01-30T14:46:41;5.20;92.70
420;DHT22;42600;54.408;13.016;2023-01-30T14:49:31;5.20;92.70
420;DHT22;42600;54.408;13.016;2023-01-30T14:51:59;5.20;92.70
420;DHT22;42600;54.408;13.016;2023-01-30T14:54:40;5.20;92.70
420;DHT22;42600;54.408;13.016;2023-01-30T14:57:21;5.20;92.70
420;DHT22;42600;54.408;13.016;2023-01-30T14:59:52;5.20;92.70
420;DHT22;42600;54.408;13.016;2023-01-30T15:02:23;5.20;92.70
420;DHT22;42600;54.408;13.016;2023-01-30T15:05:00;5.20;92.70
420;DHT22;42600;54.408;13.016;2023-01-30T15:07:30;5.20;92.70
420;DHT22;42600;54.408;13.016;2023-01-30T15:10:04;5.20;92.70
420;DHT22;42600;54.408;13.016;2023-01-30T15:13:19;5.10;92.70
420;DHT22;42600;54.408;13.016;2023-01-30T15:15:59;5.10;92.70
420;DHT22;42600;54.408;13.016;2023-01-30T15:18:38;5.10;92.70
420;DHT22;42600;54.408;13.016;2023-01-30T15:21:24;5.10;92.70
420;DHT22;42600;54.408;13.016;2023-01-30T15:24:03;5.00;92.70
420;DHT22;42600;54.408;13.016;2023-01-30T15:26:41;5.00;92.70
420;DHT22;42600;54.408;13.016;2023-01-30T15:29:25;5.00;92.70
420;DHT22;42600;54.408;13.016;2023-01-30T15:31:55;5.00;92.70
420;DHT22;42600;54.408;13.016;2023-01-30T15:34:22;5.00;92.70
420;DHT22;42600;54.408;13.016;2023-01-30T15:36:53;5.00;92.70
420;DHT22;42600;54.408;13.016;2023-01-30T15:39:22;5.00;92.70
420;DHT22;42600;54.408;13.016;2023-01-30T15:41:49;5.00;92.70
420;DHT22;42600;54.408;13.016;2023-01-30T15:44:38;5.00;92.70
420;DHT22;42600;54.408;13.016;2023-01-30T15:47:36;5.00;92.70
420;DHT22;42600;54.408;13.016;2023-01-30T15:50:07;5.10;92.70
420;DHT22;42600;54.408;13.016;2023-01-30T15:52:38;5.10;92.70
420;DHT22;42600;54.408;13.016;2023-01-30T15:55:14;5.00;92.70
420;DHT22;42600;54.408;13.016;2023-01-30T15:57:44;5.10;92.70
420;DHT22;42600;54.408;13.016;2023-01-30T16:00:25;5.10;92.70
420;DHT22;42600;54.408;13.016;2023-01-30T16:02:53;5.10;92.70
420;DHT22;42600;54.408;13.016;2023-01-30T16:05:23;5.10;92.70
420;DHT22;42600;54.408;13.016;2023-01-30T16:07:53;5.10;92.70
420;DHT22;42600;54.408;13.016;2023-01-30T16:10:22;5.10;92.70
420;DHT22;42600;54.408;13.016;2023-01-30T16:12:50;5.10;92.70
420;DHT22;42600;54.408;13.016;2023-01-30T16:15:25;5.10;92.70
420;DHT22;42600;54.408;13.016;2023-01-30T16:18:00;5.10;92.70
420;DHT22;42600;54.408;13.016;2023-01-30T16:20:28;5.10;92.70
420;DHT22;42600;54.408;13.016;2023-01-30T16:22:56;5.10;92.70
420;DHT22;42600;54.408;13.016;2023-01-30T16:25:25;5.10;92.70
420;DHT22;42600;54.408;13.016;2023-01-30T16:27:54;5.10;92.70
420;DHT22;42600;54.408;13.016;2023-01-30T16:30:25;5.10;92.70
420;DHT22;42600;54.408;13.016;2023-01-30T16:32:53;5.10;92.70
420;DHT22;42600;54.408;13.016;2023-01-30T16:35:29;5.10;92.70